Time;durP1;ratioP1;P1;durP2;ratioP2;P2;SDS_P1;SDS_P2;PMS_P1;PMS_P2;Temp;Humidity;BMP_temperature;BMP_pressure;BME280_temperature;BME280_humidity;BME280_pressure;Samples;Min_cycle;Max_cycle;Signal;HPM_P1;HPM_P2
2023/01/08 00:01:11;;;;;;;6.65;5.43;;;;;;;9.20;100.00;99685.16;6124686;23;20021;-84
2023/01/08 00:03:38;;;;;;;7.28;5.28;;;;;;;9.13;100.00;99678.47;6125030;23;20037;-85
2023/01/08 00:06:07;;;;;;;8.27;5.80;;;;;;;9.18;100.00;99687.03;6125867;23;20026;-83
2023/01/08 00:08:33;;;;;;;7.68;5.72;;;;;;;9.25;100.00;99669.94;6125595;23;20028;-83
2023/01/08 00:11:00;;;;;;;7.85;5.47;;;;;;;9.28;100.00;99667.13;6126441;23;20097;-83
2023/01/08 00:13:27;;;;;;;8.82;6.10;;;;;;;8.94;100.00;99587.97;6124989;23;20411;-83
2023/01/08 00:15:53;;;;;;;8.57;5.28;;;;;;;9.19;100.00;99620.06;6124542;23;20018;-83
2023/01/08 00:18:21;;;;;;;7.25;5.47;;;;;;;9.39;100.00;99651.56;6124898;23;20018;-82
2023/01/08 00:20:48;;;;;;;7.15;5.45;;;;;;;9.40;100.00;99642.69;6124859;23;20425;-83
2023/01/08 00:23:16;;;;;;;7.95;5.22;;;;;;;8.73;100.00;99519.53;6125016;23;20018;-83
2023/01/08 00:25:44;;;;;;;6.88;5.18;;;;;;;8.27;100.00;99436.66;6125945;23;20104;-83
2023/01/08 00:28:10;;;;;;;6.78;4.82;;;;;;;9.11;100.00;99585.28;6124368;23;20018;-82
2023/01/08 00:30:37;;;;;;;7.47;4.95;;;;;;;8.25;100.00;99435.03;6124800;23;20018;-83
2023/01/08 00:33:03;;;;;;;9.02;5.20;;;;;;;9.48;100.00;99656.31;6124694;23;20014;-83
2023/01/08 00:35:30;;;;;;;7.03;4.97;;;;;;;9.00;100.00;99556.78;6124122;23;20057;-83
2023/01/08 00:37:56;;;;;;;6.72;5.10;;;;;;;9.12;100.00;99579.09;6124333;23;20022;-83
2023/01/08 00:40:23;;;;;;;7.95;4.88;;;;;;;9.40;100.00;99624.19;6125122;23;20022;-83
2023/01/08 00:42:50;;;;;;;7.13;5.03;;;;;;;9.33;100.00;99596.38;6125392;23;20333;-83
2023/01/08 00:45:16;;;;;;;6.90;5.30;;;;;;;9.34;100.00;99597.25;6125143;23;20026;-83
2023/01/08 00:47:43;;;;;;;7.75;5.00;;;;;;;9.02;100.00;99551.44;6125148;23;20021;-83
2023/01/08 00:50:10;;;;;;;7.05;5.07;;;;;;;9.19;100.00;99582.22;6124357;23;20448;-83
2023/01/08 00:52:37;;;;;;;5.93;4.82;;;;;;;8.89;100.00;99537.19;6125409;23;20760;-84
2023/01/08 00:55:04;;;;;;;7.60;5.00;;;;;;;9.02;100.00;99554.94;6099089;23;20017;-84
2023/01/08 00:57:35;;;;;;;8.00;4.63;;;;;;;9.31;100.00;99592.97;6125077;23;20025;-85
2023/01/08 01:00:04;;;;;;;7.25;5.00;;;;;;;9.43;100.00;99618.75;6124825;23;20108;-84
2023/01/08 01:02:30;;;;;;;6.38;4.78;;;;;;;9.00;100.00;99534.81;6124650;23;20026;-85
2023/01/08 01:04:57;;;;;;;8.73;4.90;;;;;;;9.44;100.00;99604.56;6136776;23;20014;-83
2023/01/08 01:07:24;;;;;;;6.13;4.85;;;;;;;9.51;100.00;99610.38;6142381;23;20014;-84
2023/01/08 01:09:51;;;;;;;6.35;4.43;;;;;;;8.99;100.00;99517.28;6129475;23;20028;-83
2023/01/08 01:12:17;;;;;;;5.57;4.38;;;;;;;9.57;100.00;99604.78;6101527;23;20088;-85
2023/01/08 01:14:44;;;;;;;7.03;4.97;;;;;;;8.29;100.00;99383.81;6125584;23;20021;-85
2023/01/08 01:17:11;;;;;;;5.90;4.40;;;;;;;8.90;100.00;99473.75;6125031;23;20418;-84
2023/01/08 01:19:39;;;;;;;7.70;4.53;;;;;;;9.61;100.00;99594.84;6124387;23;20018;-84
2023/01/08 01:22:06;;;;;;;5.03;4.50;;;;;;;8.74;100.00;99465.81;6125735;23;20563;-84
2023/01/08 01:24:33;;;;;;;6.57;4.63;;;;;;;8.79;100.00;99469.06;6099440;23;20025;-84
2023/01/08 01:26:59;;;;;;;6.85;4.45;;;;;;;9.08;100.00;99514.16;6099764;23;20133;-84
2023/01/08 01:29:26;;;;;;;5.72;4.35;;;;;;;9.02;100.00;99510.03;6124576;23;20017;-83
2023/01/08 01:31:53;;;;;;;6.95;4.40;;;;;;;9.41;100.00;99570.41;6123476;23;20029;-84
2023/01/08 01:34:19;;;;;;;8.95;5.38;;;;;;;9.43;100.00;99571.19;6123733;23;20018;-83
2023/01/08 01:36:46;;;;;;;6.70;4.70;;;;;;;9.69;100.00;99611.16;6127285;23;20022;-83
2023/01/08 01:39:13;;;;;;;8.52;4.75;;;;;;;8.82;100.00;99475.09;6124919;23;20575;-82
2023/01/08 01:41:44;;;;;;;5.82;4.57;;;;;;;9.58;100.00;99601.19;6124687;23;20014;-84
2023/01/08 01:44:32;;;;;;;6.30;4.65;;;;;;;9.83;100.00;99627.09;6098724;23;20018;-82
2023/01/08 01:47:25;;;;;;;6.65;4.95;;;;;;;9.85;100.00;99622.59;6125332;23;20018;-83
2023/01/08 01:49:54;;;;;;;6.75;4.68;;;;;;;9.84;100.00;99626.16;6096623;23;20018;-83
2023/01/08 01:52:22;;;;;;;5.53;4.60;;;;;;;9.49;100.00;99560.25;6124791;23;20014;-82
2023/01/08 01:54:51;;;;;;;6.20;4.57;;;;;;;9.68;100.00;99590.94;6123475;23;20028;-82
2023/01/08 01:57:18;;;;;;;7.18;4.53;;;;;;;9.38;100.00;99515.09;6124462;23;20060;-82
2023/01/08 01:59:47;;;;;;;8.60;4.88;;;;;;;9.74;100.00;99574.75;6123670;23;20018;-81
2023/01/08 02:02:13;;;;;;;6.55;5.10;;;;;;;9.54;100.00;99540.66;6123368;23;20029;-82
2023/01/08 02:04:40;;;;;;;5.78;4.40;;;;;;;9.84;100.00;99600.56;6124532;23;20100;-83
2023/01/08 02:07:29;;;;;;;7.97;5.18;;;;;;;9.74;100.00;99591.47;6124543;23;20025;-83
2023/01/08 02:10:10;;;;;;;7.70;5.07;;;;;;;9.86;100.00;99603.13;6124024;23;20018;-83
2023/01/08 02:13:00;;;;;;;6.10;5.00;;;;;;;9.92;100.00;99620.44;6124906;23;20329;-85
2023/01/08 02:16:00;;;;;;;8.30;4.72;;;;;;;9.69;100.00;99584.72;6098313;23;20348;-83
2023/01/08 02:18:41;;;;;;;6.13;4.78;;;;;;;9.89;100.00;99621.47;6119871;23;20468;-84
2023/01/08 02:21:12;;;;;;;8.45;5.25;;;;;;;9.96;100.00;99609.59;6124251;23;20024;-85
2023/01/08 02:23:48;;;;;;;9.18;5.22;;;;;;;10.07;100.00;99609.00;6124469;23;20100;-84
2023/01/08 02:26:29;;;;;;;5.90;4.82;;;;;;;9.68;100.00;99543.38;6123787;23;20025;-84
2023/01/08 02:29:13;;;;;;;7.00;4.78;;;;;;;10.02;100.00;99596.03;6124366;23;20022;-81
2023/01/08 02:31:42;;;;;;;7.47;5.28;;;;;;;9.73;100.00;99551.91;6125737;23;20021;-82
2023/01/08 02:34:10;;;;;;;8.98;5.90;;;;;;;10.04;100.00;99590.66;6125356;23;20018;-82
2023/01/08 02:36:52;;;;;;;6.40;5.38;;;;;;;9.98;100.00;99586.56;6127560;23;20022;-83
2023/01/08 02:39:36;;;;;;;7.63;5.35;;;;;;;9.98;100.00;99588.34;6126909;23;20112;-82
2023/01/08 02:42:33;;;;;;;6.38;5.38;;;;;;;9.93;100.00;99585.97;6126669;23;20461;-82
2023/01/08 02:45:06;;;;;;;9.10;5.90;;;;;;;9.92;100.00;99594.84;6126862;23;20022;-83
2023/01/08 02:47:42;;;;;;;8.15;5.80;;;;;;;9.85;100.00;99589.06;6127397;23;20021;-83
2023/01/08 02:50:21;;;;;;;9.15;6.13;;;;;;;9.76;100.00;99591.34;6126662;23;20476;-82
2023/01/08 02:53:08;;;;;;;9.15;6.80;;;;;;;9.67;100.00;99582.16;6101456;23;20037;-82
2023/01/08 02:55:38;;;;;;;8.55;6.47;;;;;;;9.61;100.00;99579.00;6126561;23;20024;-82
2023/01/08 02:58:05;;;;;;;7.05;5.82;;;;;;;9.56;100.00;99576.63;6126886;23;20029;-83
2023/01/08 03:00:32;;;;;;;7.68;6.32;;;;;;;9.54;100.00;99567.09;6126665;23;20018;-81
2023/01/08 03:03:13;;;;;;;8.68;5.90;;;;;;;9.48;100.00;99561.19;6144964;23;20069;-81
2023/01/08 03:05:42;;;;;;;7.70;6.28;;;;;;;8.97;100.00;99490.94;6131094;23;20604;-82
2023/01/08 03:08:10;;;;;;;10.38;7.18;;;;;;;9.36;100.00;99569.81;6102022;23;20025;-82
2023/01/08 03:10:40;;;;;;;8.10;6.78;;;;;;;8.62;100.00;99428.69;6126961;23;20025;-82
2023/01/08 03:13:13;;;;;;;10.65;6.97;;;;;;;9.14;100.00;99524.34;6125762;23;20017;-81
2023/01/08 03:15:48;;;;;;;9.48;6.80;;;;;;;9.16;100.00;99535.69;6127159;23;20040;-82
2023/01/08 03:18:20;;;;;;;8.23;6.47;;;;;;;8.78;100.00;99475.28;6126990;23;20029;-81
2023/01/08 03:20:48;;;;;;;7.38;6.55;;;;;;;9.24;100.00;99554.63;6127191;23;20018;-83
2023/01/08 03:23:16;;;;;;;9.30;6.60;;;;;;;8.97;100.00;99514.72;6126702;23;20032;-82
2023/01/08 03:25:46;;;;;;;11.23;7.53;;;;;;;9.20;100.00;99542.53;6127289;23;20120;-83
2023/01/08 03:28:19;;;;;;;10.80;7.53;;;;;;;8.87;100.00;99504.75;6127170;23;20024;-84
2023/01/08 03:30:47;;;;;;;9.93;6.95;;;;;;;9.05;100.00;99546.84;6127308;23;20041;-84
2023/01/08 03:33:15;;;;;;;10.82;7.32;;;;;;;8.84;100.00;99503.13;6127143;23;20014;-83
2023/01/08 03:35:46;;;;;;;10.23;7.97;;;;;;;8.66;100.00;99486.47;6130417;23;20028;-83
2023/01/08 03:38:31;;;;;;;;;;;;;;;8.92;100.00;99527.34;6128328;23;20017;-81
2023/01/08 03:41:06;;;;;;;11.65;7.63;;;;;;;8.61;100.00;99496.44;6127316;23;19916;-82
2023/01/08 03:43:32;;;;;;;12.30;8.48;;;;;;;8.07;100.00;99418.38;6124337;23;20093;-81
2023/01/08 03:46:03;;;;;;;10.52;7.65;;;;;;;8.40;100.00;99479.09;6125617;23;20029;-81
2023/01/08 03:48:33;;;;;;;11.48;8.98;;;;;;;8.07;100.00;99427.16;6098833;23;20033;-81
2023/01/08 03:50:59;;;;;;;12.98;8.57;;;;;;;7.89;100.00;99396.47;6098898;23;20474;-82
2023/01/08 03:53:27;;;;;;;10.32;8.48;;;;;;;7.91;100.00;99410.41;6124385;23;20018;-80
2023/01/08 03:55:54;;;;;;;12.43;8.25;;;;;;;7.65;100.00;99355.56;6125401;23;20025;-81
2023/01/08 03:58:21;;;;;;;12.27;8.93;;;;;;;8.60;100.00;99505.28;6131246;23;20018;-82
2023/01/08 04:00:47;;;;;;;11.90;8.77;;;;;;;7.86;100.00;99375.56;6141284;23;20026;-83
2023/01/08 04:03:14;;;;;;;11.55;8.65;;;;;;;8.12;100.00;99432.19;6142684;23;20121;-83
2023/01/08 04:05:42;;;;;;;12.52;8.90;;;;;;;6.65;100.00;99186.03;6143510;23;20018;-84
2023/01/08 04:08:11;;;;;;;11.57;9.27;;;;;;;6.71;100.00;99187.50;6133203;23;20073;-82
2023/01/08 04:10:37;;;;;;;11.50;8.50;;;;;;;8.39;100.00;99469.47;6124355;23;20022;-82
2023/01/08 04:13:04;;;;;;;12.68;9.55;;;;;;;8.24;100.00;99449.16;6129324;23;20025;-84
2023/01/08 04:15:32;;;;;;;13.05;8.23;;;;;;;7.49;100.00;99328.31;6127654;23;20022;-84
2023/01/08 04:17:59;;;;;;;9.63;8.02;;;;;;;7.35;100.00;99314.06;6127868;23;20618;-83
2023/01/08 04:20:25;;;;;;;11.90;8.10;;;;;;;7.25;100.00;99273.31;6129169;23;20030;-84
2023/01/08 04:22:52;;;;;;;11.43;8.45;;;;;;;8.05;100.00;99400.00;6129788;23;20113;-85
2023/01/08 04:25:19;;;;;;;13.18;8.55;;;;;;;6.63;100.00;99174.72;6127218;23;20193;-83
2023/01/08 04:27:45;;;;;;;11.07;8.15;;;;;;;8.18;100.00;99425.75;6126726;23;20089;-83
2023/01/08 04:30:12;;;;;;;10.88;8.52;;;;;;;8.34;100.00;99450.41;6126323;23;20022;-83
2023/01/08 04:32:38;;;;;;;11.05;8.48;;;;;;;8.14;100.00;99397.84;6127209;23;20071;-83
2023/01/08 04:35:05;;;;;;;13.98;8.52;;;;;;;7.87;100.00;99355.31;6125166;23;20032;-83
2023/01/08 04:37:32;;;;;;;12.38;8.38;;;;;;;7.65;100.00;99332.72;6124667;23;20018;-83
2023/01/08 04:39:58;;;;;;;12.02;8.43;;;;;;;7.21;100.00;99255.16;6124206;23;20026;-82
2023/01/08 04:42:25;;;;;;;12.25;8.88;;;;;;;7.47;100.00;99295.94;6125941;23;20022;-82
2023/01/08 04:44:51;;;;;;;11.85;8.88;;;;;;;7.61;100.00;99318.00;6125872;23;20018;-82
2023/01/08 04:47:18;;;;;;;11.70;8.35;;;;;;;7.18;100.00;99242.97;6125568;23;20032;-82
2023/01/08 04:49:45;;;;;;;12.07;8.18;;;;;;;7.15;100.00;99235.25;6125664;23;20022;-83
2023/01/08 04:52:11;;;;;;;12.57;8.75;;;;;;;7.46;100.00;99320.56;6125416;23;20010;-82
2023/01/08 04:54:38;;;;;;;10.13;8.18;;;;;;;8.05;100.00;99385.97;6123858;23;20041;-82
2023/01/08 04:57:04;;;;;;;10.68;7.93;;;;;;;8.25;100.00;99409.50;6126622;23;20024;-82
2023/01/08 04:59:31;;;;;;;12.55;8.25;;;;;;;8.13;100.00;99398.75;6141042;23;20065;-81
2023/01/08 05:01:58;;;;;;;10.02;7.63;;;;;;;8.06;100.00;99379.75;6132055;23;20029;-82
2023/01/08 05:04:24;;;;;;;10.02;8.30;;;;;;;8.27;100.00;99418.19;6125551;23;20046;-82
2023/01/08 05:06:51;;;;;;;13.85;7.72;;;;;;;8.21;100.00;99397.41;6126070;23;20025;-82
2023/01/08 05:09:17;;;;;;;11.25;8.23;;;;;;;8.48;100.00;99447.91;6124482;23;20044;-83
2023/01/08 05:11:44;;;;;;;10.43;8.50;;;;;;;8.14;100.00;99397.84;6126288;23;20017;-84
2023/01/08 05:14:10;;;;;;;11.02;7.93;;;;;;;8.43;100.00;99452.56;6122895;23;20029;-83
2023/01/08 05:16:37;;;;;;;12.13;8.13;;;;;;;8.35;100.00;99436.28;6124214;23;20117;-82
2023/01/08 05:19:03;;;;;;;13.02;9.05;;;;;;;7.36;100.00;99278.06;6125006;23;20025;-83
2023/01/08 05:21:30;;;;;;;11.77;8.45;;;;;;;7.13;100.00;99228.34;6099851;23;20073;-83
2023/01/08 05:23:56;;;;;;;14.23;8.52;;;;;;;7.60;100.00;99308.38;6124812;23;20014;-82
2023/01/08 05:26:23;;;;;;;10.68;8.32;;;;;;;8.47;100.00;99461.16;6125753;23;20045;-82
2023/01/08 05:28:50;;;;;;;10.55;7.85;;;;;;;7.86;100.00;99353.63;6125011;23;20114;-82
2023/01/08 05:31:16;;;;;;;11.25;8.77;;;;;;;8.24;100.00;99406.94;6100136;23;20024;-83
2023/01/08 05:33:44;;;;;;;11.95;8.23;;;;;;;8.16;100.00;99385.44;6127400;23;20349;-85
2023/01/08 05:36:11;;;;;;;12.40;9.48;;;;;;;7.54;100.00;99298.19;6104415;23;20029;-84
2023/01/08 05:38:39;;;;;;;12.05;8.73;;;;;;;8.50;100.00;99438.09;6126667;23;20024;-84
2023/01/08 05:41:06;;;;;;;12.73;9.02;;;;;;;8.51;100.00;99434.50;6130312;23;20049;-83
2023/01/08 05:43:34;;;;;;;14.27;8.95;;;;;;;8.25;100.00;99404.22;6130588;23;20082;-83
2023/01/08 05:46:01;;;;;;;10.95;8.43;;;;;;;8.47;100.00;99438.28;6132525;23;20112;-83
2023/01/08 05:48:29;;;;;;;9.98;8.52;;;;;;;8.25;100.00;99421.84;6126178;23;20021;-83
2023/01/08 05:50:55;;;;;;;10.65;8.50;;;;;;;8.20;100.00;99431.78;6125896;23;20028;-83
2023/01/08 05:53:22;;;;;;;14.10;8.70;;;;;;;7.95;100.00;99377.69;6125358;23;20100;-83
2023/01/08 05:55:49;;;;;;;9.85;7.68;;;;;;;7.64;100.00;99335.44;6127971;23;20053;-84
2023/01/08 05:58:18;;;;;;;12.98;7.63;;;;;;;7.68;100.00;99335.19;6127212;23;20105;-83
2023/01/08 06:00:45;;;;;;;9.82;7.78;;;;;;;6.82;100.00;99184.31;6125526;23;20392;-82
2023/01/08 06:03:11;;;;;;;9.93;7.20;;;;;;;7.59;100.00;99329.53;6125030;23;20036;-84
2023/01/08 06:05:38;;;;;;;9.77;7.65;;;;;;;8.00;100.00;99375.69;6124997;23;20038;-82
2023/01/08 06:08:04;;;;;;;12.35;7.15;;;;;;;7.69;100.00;99328.16;6125731;23;20413;-82
2023/01/08 06:10:34;;;;;;;9.05;7.10;;;;;;;8.29;100.00;99436.59;6124963;23;20021;-81
2023/01/08 06:13:00;;;;;;;9.38;7.07;;;;;;;6.60;100.00;99155.63;6125858;23;20093;-83
2023/01/08 06:15:27;;;;;;;10.10;7.30;;;;;;;7.68;100.00;99342.25;6124963;23;20441;-81
2023/01/08 06:17:54;;;;;;;12.55;8.32;;;;;;;7.74;100.00;99342.75;6124525;23;20061;-82
2023/01/08 06:20:20;;;;;;;10.45;7.45;;;;;;;7.71;100.00;99348.19;6098160;23;20069;-83
2023/01/08 06:22:47;;;;;;;11.07;7.20;;;;;;;8.32;100.00;99439.09;6098940;23;20475;-82
2023/01/08 06:25:13;;;;;;;9.32;7.50;;;;;;;7.59;100.00;99327.75;6123919;23;20028;-83
2023/01/08 06:27:40;;;;;;;9.32;7.28;;;;;;;8.26;100.00;99449.94;6124791;23;20021;-83
2023/01/08 06:30:07;;;;;;;9.73;7.25;;;;;;;7.45;100.00;99316.22;6123808;23;20022;-82
2023/01/08 06:32:33;;;;;;;11.52;7.60;;;;;;;7.73;100.00;99362.13;6125491;23;20018;-82
2023/01/08 06:35:00;;;;;;;10.93;7.60;;;;;;;8.20;100.00;99426.50;6101589;23;20425;-82
2023/01/08 06:37:26;;;;;;;11.85;7.68;;;;;;;7.77;100.00;99349.66;6135597;23;20030;-80
2023/01/08 06:39:53;;;;;;;10.63;7.10;;;;;;;8.03;100.00;99401.00;6142594;23;20033;-80
2023/01/08 06:42:20;;;;;;;10.00;7.15;;;;;;;7.72;100.00;99355.16;6139189;23;20022;-82
2023/01/08 06:44:46;;;;;;;7.45;6.10;;;;;;;8.25;100.00;99430.59;6139786;23;20030;-81
2023/01/08 06:47:12;;;;;;;9.98;6.70;;;;;;;8.14;100.00;99398.69;6143320;23;20028;-82
2023/01/08 06:49:39;;;;;;;8.82;6.45;;;;;;;7.68;100.00;99334.34;6145893;23;20036;-83
2023/01/08 06:52:05;;;;;;;8.60;6.05;;;;;;;7.83;100.00;99359.91;6135930;23;20082;-81
2023/01/08 06:54:32;;;;;;;8.70;5.90;;;;;;;8.32;100.00;99442.59;6135766;23;20029;-80
2023/01/08 06:56:59;;;;;;;7.85;6.13;;;;;;;7.97;100.00;99391.66;6132590;23;20080;-82
2023/01/08 06:59:25;;;;;;;8.20;5.97;;;;;;;8.03;100.00;99430.00;6127906;23;20029;-81
2023/01/08 07:01:58;;;;;;;8.23;5.25;;;;;;;7.68;100.00;99345.75;6128016;23;20135;-83
2023/01/08 07:04:25;;;;;;;8.30;5.93;;;;;;;7.63;100.00;99341.63;6127255;23;20038;-80
2023/01/08 07:06:51;;;;;;;8.50;6.43;;;;;;;8.29;100.00;99442.72;6099686;23;20022;-81
2023/01/08 07:09:18;;;;;;;8.40;6.05;;;;;;;7.68;100.00;99335.19;6123799;23;20018;-80
2023/01/08 07:11:44;;;;;;;12.77;5.53;;;;;;;8.34;100.00;99445.97;6121788;23;20109;-82
2023/01/08 07:14:11;;;;;;;8.00;5.93;;;;;;;7.85;100.00;99376.50;6122896;23;20092;-81
2023/01/08 07:16:37;;;;;;;9.02;5.40;;;;;;;7.71;100.00;99335.00;6123027;23;20022;-80
2023/01/08 07:19:04;;;;;;;7.30;5.57;;;;;;;8.38;100.00;99441.38;6124722;23;20325;-82
2023/01/08 07:21:31;;;;;;;6.70;5.40;;;;;;;7.14;100.00;99259.84;6126223;23;20102;-82
2023/01/08 07:23:58;;;;;;;7.30;5.47;;;;;;;8.34;100.00;99460.97;6125161;23;20069;-82
2023/01/08 07:26:25;;;;;;;8.05;5.68;;;;;;;8.17;100.00;99410.88;6126700;23;20104;-81
2023/01/08 07:28:52;;;;;;;6.97;5.03;;;;;;;7.16;100.00;99263.28;6129443;23;20038;-83
2023/01/08 07:31:18;;;;;;;7.00;5.22;;;;;;;7.68;100.00;99356.28;6134511;23;20013;-82
2023/01/08 07:33:45;;;;;;;6.47;5.30;;;;;;;6.32;100.00;99133.31;6139700;23;20025;-83
2023/01/08 07:36:12;;;;;;;6.45;4.80;;;;;;;7.08;100.00;99265.47;6131687;23;20491;-82
2023/01/08 07:38:38;;;;;;;8.45;5.03;;;;;;;8.01;100.00;99429.25;6126308;23;20021;-84
2023/01/08 07:41:05;;;;;;;7.40;5.10;;;;;;;8.21;100.00;99457.22;6126447;23;20040;-84
2023/01/08 07:43:31;;;;;;;6.63;5.30;;;;;;;8.07;100.00;99423.66;6126362;23;20025;-85
2023/01/08 07:46:01;;;;;;;7.05;5.40;;;;;;;8.29;100.00;99460.31;6125731;23;20066;-83
2023/01/08 07:48:28;;;;;;;7.50;5.35;;;;;;;7.96;100.00;99411.03;6125253;23;20017;-83
2023/01/08 07:51:03;;;;;;;7.30;5.43;;;;;;;7.68;100.00;99353.66;6125363;23;20022;-83
2023/01/08 07:53:29;;;;;;;8.23;5.68;;;;;;;8.15;100.00;99433.81;6125563;23;20021;-82
2023/01/08 07:56:06;;;;;;;6.72;5.20;;;;;;;8.30;100.00;99454.13;6125625;23;20018;-83
2023/01/08 07:58:33;;;;;;;6.82;5.35;;;;;;;7.78;100.00;99372.44;6125305;23;20022;-84
2023/01/08 08:01:00;;;;;;;8.10;5.90;;;;;;;7.62;100.00;99348.69;6125619;23;20022;-85
2023/01/08 08:03:27;;;;;;;8.57;5.88;;;;;;;7.96;100.00;99426.84;6125159;23;20109;-83
2023/01/08 08:05:54;;;;;;;8.10;5.90;;;;;;;7.36;100.00;99291.22;6125439;23;20350;-83
2023/01/08 08:08:20;;;;;;;8.23;5.88;;;;;;;7.69;100.00;99352.72;6124890;23;20025;-86
2023/01/08 08:10:47;;;;;;;7.30;6.30;;;;;;;8.09;100.00;99409.47;6125104;23;20096;-85
2023/01/08 08:13:13;;;;;;;8.02;6.05;;;;;;;7.24;100.00;99255.00;6125141;23;20041;-85
2023/01/08 08:15:40;;;;;;;8.77;5.97;;;;;;;8.12;100.00;99418.16;6099309;23;20028;-86
2023/01/08 08:18:07;;;;;;;8.18;6.15;;;;;;;7.63;100.00;99310.84;6125301;23;20028;-85
2023/01/08 08:20:34;;;;;;;7.20;5.95;;;;;;;6.44;100.00;99117.88;6124699;23;20018;-83
2023/01/08 08:23:03;;;;;;;6.93;5.78;;;;;;;7.79;100.00;99316.19;6123942;23;20022;-84
2023/01/08 08:25:30;;;;;;;6.50;5.47;;;;;;;7.53;100.00;99308.78;6098932;23;20105;-84
2023/01/08 08:27:58;;;;;;;8.35;5.47;;;;;;;6.52;100.00;99134.97;6123426;23;20033;-83
2023/01/08 08:30:27;;;;;;;9.32;6.13;;;;;;;7.86;100.00;99383.47;6098745;23;20353;-84
2023/01/08 08:32:54;;;;;;;8.40;5.47;;;;;;;8.21;100.00;99433.47;6125219;23;20077;-84
2023/01/08 08:35:21;;;;;;;8.02;5.40;;;;;;;8.44;100.00;99447.19;6124265;23;20041;-84
2023/01/08 08:37:49;;;;;;;7.13;5.32;;;;;;;7.46;100.00;99265.25;6124505;23;20018;-84
2023/01/08 08:40:16;;;;;;;7.00;5.38;;;;;;;7.46;100.00;99254.72;6125084;23;20021;-83
2023/01/08 08:42:43;;;;;;;6.70;5.47;;;;;;;7.49;100.00;99270.38;6124555;23;20113;-84
2023/01/08 08:45:09;;;;;;;6.47;5.18;;;;;;;8.61;100.00;99479.75;6124760;23;20014;-84
2023/01/08 08:47:36;;;;;;;9.27;4.82;;;;;;;8.40;100.00;99450.94;6124745;23;20559;-84
2023/01/08 08:50:06;;;;;;;7.00;5.28;;;;;;;8.33;100.00;99446.06;6125249;23;20041;-83
2023/01/08 08:52:33;;;;;;;9.57;5.72;;;;;;;7.18;100.00;99250.03;6135643;23;20435;-84
2023/01/08 08:55:00;;;;;;;6.95;5.30;;;;;;;8.42;100.00;99467.53;6136809;23;20133;-83
2023/01/08 08:57:26;;;;;;;11.57;6.22;;;;;;;8.37;100.00;99453.72;6133447;23;20022;-84
2023/01/08 08:59:53;;;;;;;7.50;5.97;;;;;;;7.77;100.00;99359.34;6125460;23;20066;-83
2023/01/08 09:02:20;;;;;;;7.80;5.10;;;;;;;8.44;100.00;99483.28;6124517;23;20026;-83
2023/01/08 09:04:47;;;;;;;6.30;5.38;;;;;;;7.80;100.00;99359.19;6125121;23;20093;-84
2023/01/08 09:07:14;;;;;;;6.15;5.15;;;;;;;7.56;100.00;99321.78;6098930;23;20487;-83
2023/01/08 09:09:40;;;;;;;7.88;5.40;;;;;;;7.36;100.00;99286.81;6123922;23;20417;-83
2023/01/08 09:12:08;;;;;;;7.63;5.30;;;;;;;7.65;100.00;99310.78;6124938;23;20026;-83
2023/01/08 09:14:35;;;;;;;8.60;6.22;;;;;;;8.30;100.00;99427.72;6098325;23;20029;-83
2023/01/08 09:17:01;;;;;;;7.22;5.28;;;;;;;7.17;100.00;99280.78;6123743;23;20054;-83
2023/01/08 09:19:28;;;;;;;8.63;5.63;;;;;;;7.21;100.00;99261.25;6123886;23;20026;-85
2023/01/08 09:21:54;;;;;;;7.90;5.80;;;;;;;7.85;100.00;99363.31;6124824;23;20104;-84
2023/01/08 09:24:21;;;;;;;7.63;5.53;;;;;;;7.22;100.00;99251.59;6124383;23;20073;-84
2023/01/08 09:26:48;;;;;;;8.85;6.00;;;;;;;7.74;100.00;99355.94;6124250;23;20025;-84
2023/01/08 09:29:14;;;;;;;9.30;6.20;;;;;;;7.22;100.00;99256.84;6124734;23;20034;-83
2023/01/08 09:31:41;;;;;;;7.97;5.95;;;;;;;8.30;100.00;99440.94;6123895;23;20040;-83
2023/01/08 09:34:08;;;;;;;7.85;5.60;;;;;;;7.74;100.00;99361.22;6126089;23;20098;-85
2023/01/08 09:36:35;;;;;;;9.00;6.18;;;;;;;7.80;100.00;99360.06;6124926;23;20518;-85
2023/01/08 09:39:02;;;;;;;8.40;6.22;;;;;;;6.92;100.00;99220.63;6124907;23;20088;-83
2023/01/08 09:41:35;;;;;;;6.90;5.65;;;;;;;8.02;100.00;99392.28;6125347;23;20101;-84
2023/01/08 09:44:05;;;;;;;8.55;5.88;;;;;;;7.27;100.00;99260.06;6124662;23;20068;-83
2023/01/08 09:46:33;;;;;;;9.80;6.23;;;;;;;7.79;100.00;99354.84;6124437;23;20022;-84
2023/01/08 09:49:05;;;;;;;9.43;6.53;;;;;;;7.31;100.00;99298.50;6124225;23;20647;-84
2023/01/08 09:51:34;;;;;;;6.35;5.50;;;;;;;7.59;100.00;99309.31;6125563;23;20112;-84
2023/01/08 09:54:01;;;;;;;8.98;6.10;;;;;;;7.10;100.00;99226.72;6125862;23;20617;-84
2023/01/08 09:56:29;;;;;;;8.38;6.32;;;;;;;8.17;100.00;99398.53;6124717;23;20024;-84
2023/01/08 09:58:59;;;;;;;8.13;5.95;;;;;;;6.94;100.00;99178.41;6124739;23;20105;-84
2023/01/08 10:01:28;;;;;;;7.53;6.13;;;;;;;8.36;100.00;99404.53;6126661;23;20330;-84
2023/01/08 10:04:04;;;;;;;8.15;6.40;;;;;;;8.61;100.00;99443.66;6125665;23;20081;-84
2023/01/08 10:06:31;;;;;;;9.70;6.22;;;;;;;7.60;100.00;99268.00;6127355;23;20448;-84
2023/01/08 10:08:58;;;;;;;7.63;6.38;;;;;;;8.19;100.00;99372.03;6125194;23;20025;-85
2023/01/08 10:11:30;;;;;;;9.73;6.75;;;;;;;8.70;100.00;99480.09;6126351;23;20024;-85
2023/01/08 10:13:56;;;;;;;8.57;6.65;;;;;;;8.01;100.00;99358.09;6126824;23;20025;-85
2023/01/08 10:16:32;;;;;;;9.85;6.22;;;;;;;8.69;100.00;99456.44;6100351;23;20024;-85
2023/01/08 10:18:59;;;;;;;7.60;6.07;;;;;;;8.09;100.00;99348.81;6126658;23;20017;-84
2023/01/08 10:21:35;;;;;;;10.52;6.28;;;;;;;7.02;100.00;99160.47;6100791;23;20053;-82
2023/01/08 10:24:02;;;;;;;10.10;6.45;;;;;;;7.86;100.00;99301.75;6127082;23;20074;-83
2023/01/08 10:26:32;;;;;;;7.57;6.32;;;;;;;8.61;100.00;99403.22;6105196;23;20053;-84
2023/01/08 10:29:12;;;;;;;9.18;5.55;;;;;;;8.68;100.00;99410.72;6131516;23;20033;-85
2023/01/08 10:31:54;;;;;;;9.52;6.55;;;;;;;8.73;100.00;99405.19;6129935;23;20022;-86
2023/01/08 10:34:26;;;;;;;8.05;5.80;;;;;;;8.70;100.00;99393.00;6131918;23;20018;-85
2023/01/08 10:36:53;;;;;;;8.50;6.53;;;;;;;8.86;100.00;99418.56;6130912;23;20049;-85
2023/01/08 10:39:25;;;;;;;7.28;6.38;;;;;;;8.27;100.00;99338.22;6129181;23;20041;-84
2023/01/08 10:41:55;;;;;;;8.90;6.70;;;;;;;7.51;100.00;99176.31;6127783;23;20022;-84
2023/01/08 10:44:25;;;;;;;10.23;7.07;;;;;;;8.34;100.00;99307.97;6128493;23;20078;-82
2023/01/08 10:46:56;;;;;;;8.48;7.00;;;;;;;7.82;100.00;99252.78;6128484;23;20644;-84
2023/01/08 10:49:32;;;;;;;10.50;7.80;;;;;;;8.64;100.00;99366.97;6128619;23;20049;-84
2023/01/08 10:51:59;;;;;;;9.50;7.22;;;;;;;9.04;100.00;99417.53;6140007;23;20054;-85
2023/01/08 10:54:33;;;;;;;8.65;7.15;;;;;;;9.08;100.00;99409.34;6141109;23;20024;-85
2023/01/08 10:57:00;;;;;;;9.85;8.13;;;;;;;9.10;100.00;99396.91;6139053;23;20081;-85
2023/01/08 10:59:28;;;;;;;8.65;7.35;;;;;;;8.67;100.00;99316.63;6132095;23;20021;-86
2023/01/08 11:01:56;;;;;;;9.68;7.15;;;;;;;8.89;100.00;99333.91;6127710;23;20396;-86
2023/01/08 11:04:32;;;;;;;9.48;7.07;;;;;;;9.24;100.00;99405.84;6127121;23;20078;-86
2023/01/08 11:07:05;;;;;;;8.88;7.00;;;;;;;9.22;100.00;99383.94;6127333;23;20022;-87
2023/01/08 11:09:47;;;;;;;8.93;6.03;;;;;;;8.81;100.00;99322.94;6126756;23;20517;-86
2023/01/08 11:12:35;;;;;;;8.05;5.90;;;;;;;9.25;100.00;99379.34;6100713;23;20464;-86
2023/01/08 11:15:06;;;;;;;9.25;5.97;;;;;;;9.34;100.00;99381.44;6128056;23;20036;-84
2023/01/08 11:17:33;;;;;;;8.57;6.70;;;;;;;8.25;100.00;99214.34;6127238;23;20022;-85
2023/01/08 11:20:18;;;;;;;7.88;5.90;;;;;;;8.73;100.00;99263.50;6126663;23;20161;-84
2023/01/08 11:22:45;;;;;;;10.05;5.95;;;;;;;8.03;100.00;99154.03;6127119;23;20029;-86
2023/01/08 11:25:24;;;;;;;8.25;5.90;;;;;;;8.20;100.00;99173.34;6125446;23;20045;-86
2023/01/08 11:27:52;;;;;;;10.73;6.47;;;;;;;8.88;100.00;99271.47;6127572;23;20030;-87
2023/01/08 11:30:22;;;;;;;8.90;6.40;;;;;;;7.84;100.00;99094.56;6127148;23;20022;-86
2023/01/08 11:33:01;;;;;;;7.63;5.75;;;;;;;9.24;100.00;99290.47;6127791;23;20101;-86
2023/01/08 11:35:42;;;;;;;9.65;5.65;;;;;;;9.37;100.00;99298.50;6127805;23;20081;-86
2023/01/08 11:38:11;;;;;;;6.72;5.05;;;;;;;8.88;100.00;99226.59;6127114;23;20101;-87
2023/01/08 11:40:59;;;;;;;7.82;5.30;;;;;;;7.85;100.00;99060.22;6126909;23;20522;-86